Glencoe, MN

7:13 AM CST on December 13, 2019 (GMT -0600)
Glencoe Municipal

Weather History for KGYL - October, 2019

Change the Weather History Date:

Monday, October 14, 2019

  Actual Average (KHCD) Record (KHCD)
Temperature  
Mean Temperature 39 °F -  
Max Temperature 50 °F 59 °F 80 °F (1958)
Min Temperature 28 °F 39 °F 26 °F (1986)
Degree Days  
Heating Degree Days 26    
Moisture  
Dew Point 34 °F    
Average Humidity 79    
Maximum Humidity 100    
Minimum Humidity 50    
Precipitation  
Precipitation 0.00 in - - ()
Sea Level Pressure  
Sea Level Pressure 29.94 in    
Wind  
Wind Speed 3 mph (SSE)    
Max Wind Speed 8 mph    
Max Gust Speed -    
Visibility 10 miles    
Events      
Averages and records for this station are not official NWS values.
T = Trace of Precipitation, MM = Missing Value Source: NWS Daily Summary

Daily Weather History Graph

Daily Weather History Graph

Search for Another Location

Airport or City:

Astronomy

Oct. 14, 2019 Rise Set
Actual Time 7:30 AM CDT 6:33 PM CDT
Civil Twilight 7:00 AM CDT 7:03 PM CDT
Nautical Twilight 6:26 AM CDT 7:36 PM CDT
Astronomical Twilight 5:53 AM CDT 8:10 PM CDT
Moon 7:23 PM CDT (10/14) 8:02 AM CDT (10/14)
Length of Visible Light 12h 02m
Length of Day
11h 03m
Full, 99% of the Moon is Illuminated
Oct 14
Full
Oct 21
Last Quarter
Oct 27
New
Nov 4
First Quarter
Nov 12
Full

Hourly Weather History & Observations

Time (CDT) Temp. Windchill Dew Point Humidity Pressure Visibility Wind Dir Wind Speed Gust Speed Precip Events Conditions
12:18 AM 34.9 °F 30.8 °F 34.0 °F 97% 29.95 in 10.0 mi West 4.6 mph - N/A   Clear
12:37 AM 35.1 °F - 34.9 °F 99% 29.95 in 10.0 mi Calm Calm - N/A   Clear
12:55 AM 34.7 °F - 34.7 °F 100% 29.95 in 10.0 mi Calm Calm - N/A   Clear
12:56 AM 34.7 °F - 34.7 °F 100% 29.95 in 10.0 mi Calm Calm - N/A   Clear
1:21 AM 33.8 °F - 34.0 °F 100% 29.95 in 10.0 mi Calm Calm - N/A   Clear
1:38 AM 33.1 °F 30.0 °F 33.1 °F 100% 29.95 in 10.0 mi WSW 3.5 mph - N/A   Clear
1:56 AM 32.9 °F 29.8 °F 33.1 °F 100% 29.96 in 10.0 mi WSW 3.5 mph - N/A   Scattered Clouds
2:15 AM 33.3 °F - 33.4 °F 100% 29.96 in 10.0 mi Calm Calm - N/A   Mostly Cloudy
2:16 AM 33.3 °F - 33.4 °F 100% 29.96 in 10.0 mi Calm Calm - N/A   Mostly Cloudy
2:35 AM 33.3 °F 30.2 °F 33.3 °F 100% 29.97 in 10.0 mi WSW 3.5 mph - N/A   Mostly Cloudy
2:58 AM 33.6 °F 30.6 °F 33.6 °F 100% 29.96 in 10.0 mi WSW 3.5 mph - N/A   Overcast
3:15 AM 33.4 °F 30.4 °F 33.6 °F 100% 29.97 in 10.0 mi WSW 3.5 mph - N/A   Overcast
3:35 AM 33.1 °F 28.7 °F 33.3 °F 100% 29.97 in 10.0 mi SW 4.6 mph - N/A   Scattered Clouds
3:55 AM 32.4 °F - 32.5 °F 100% 29.97 in 10.0 mi Calm Calm - N/A   Clear
3:56 AM 32.4 °F 29.1 °F 32.5 °F 100% 29.97 in 10.0 mi WSW 3.5 mph - N/A   Clear
4:17 AM 32.0 °F 28.7 °F 32.0 °F 100% 29.97 in 10.0 mi WSW 3.5 mph - N/A   Clear
4:36 AM 31.8 °F 28.5 °F 32.0 °F 100% 29.99 in 10.0 mi SW 3.5 mph - N/A   Clear
4:55 AM 31.8 °F 28.5 °F 32.0 °F 100% 29.99 in 10.0 mi SW 3.5 mph - N/A   Clear
4:56 AM 31.8 °F 28.5 °F 32.0 °F 100% 29.99 in 10.0 mi SW 3.5 mph - N/A   Clear
5:18 AM 31.5 °F - 31.6 °F 100% 29.99 in 10.0 mi Calm Calm - N/A   Clear
5:59 AM 30.2 °F - 30.2 °F 100% 29.99 in 10.0 mi Calm Calm - N/A   Clear
6:59 AM 28.4 °F 24.6 °F 28.4 °F 100% 30.00 in 10.0 mi SW 3.5 mph - N/A   Scattered Clouds
7:36 AM - - - N/A% 30.01 in 10.0 mi Calm Calm - N/A   Scattered Clouds
7:55 AM 30.0 °F - 30.2 °F 100% 30.00 in 10.0 mi Calm Calm - N/A   Clear
7:56 AM 30.0 °F - 30.2 °F 100% 30.00 in 10.0 mi Calm Calm - N/A   Clear
8:19 AM 30.9 °F 27.5 °F 30.9 °F 100% 30.01 in 10.0 mi SW 3.5 mph - N/A   Clear
8:59 AM 32.0 °F - 32.0 °F 100% 30.01 in 10.0 mi Calm Calm - N/A   Clear
10:03 AM - - - N/A% 30.01 in 10.0 mi SW 3.5 mph - N/A   Clear
10:15 AM 39.4 °F 37.2 °F 35.8 °F 87% 30.01 in 10.0 mi SW 3.5 mph - N/A   Clear
10:35 AM 40.6 °F 37.5 °F 35.1 °F 80% 30.01 in 10.0 mi SSW 4.6 mph - N/A   Clear
10:58 AM 42.1 °F 39.2 °F 34.0 °F 73% 30.02 in 10.0 mi SSW 4.6 mph - N/A   Clear
11:16 AM 42.3 °F 37.9 °F 32.5 °F 68% 30.01 in 10.0 mi SSW 6.9 mph - N/A   Scattered Clouds
11:35 AM 43.3 °F 39.9 °F 32.7 °F 66% 30.01 in 10.0 mi South 5.8 mph - N/A   Scattered Clouds
11:36 AM 43.3 °F 39.9 °F 32.7 °F 66% 30.01 in 10.0 mi South 5.8 mph - N/A   Scattered Clouds
11:55 AM - - - N/A% 30.01 in 10.0 mi South 6.9 mph - N/A   Scattered Clouds
12:26 PM - - - N/A% 30.00 in 10.0 mi South 6.9 mph - N/A   Scattered Clouds
12:35 PM 45.1 °F 42.8 °F 32.9 °F 62% 30.00 in 10.0 mi South 4.6 mph - N/A   Scattered Clouds
12:58 PM 45.1 °F 41.4 °F 32.9 °F 62% 30.00 in 10.0 mi SSW 6.9 mph - N/A   Clear
1:15 PM 46.6 °F - 33.4 °F 60% 29.98 in 10.0 mi SSE 4.6 mph - N/A   Scattered Clouds
1:35 PM 46.6 °F - 32.5 °F 58% 29.97 in 10.0 mi South 4.6 mph - N/A   Scattered Clouds
1:36 PM 46.6 °F - 32.5 °F 58% 29.97 in 10.0 mi SW 4.6 mph - N/A   Scattered Clouds
1:55 PM 47.7 °F - 33.8 °F 59% 29.97 in 10.0 mi South 5.8 mph - N/A   Clear
1:59 PM 48.0 °F - 33.6 °F 57% 29.97 in 10.0 mi South 3.5 mph - N/A   Clear
2:17 PM 48.6 °F - 33.4 °F 56% 29.96 in 10.0 mi SSE 4.6 mph - N/A   Clear
2:35 PM 49.3 °F - 33.1 °F 54% 29.95 in 10.0 mi South 8.1 mph - N/A   Clear
2:55 PM 49.5 °F - 33.3 °F 54% 29.95 in 10.0 mi South 6.9 mph - N/A   Clear
3:33 PM - - - N/A% 29.93 in 10.0 mi South 6.9 mph - N/A   Clear
3:35 PM - - - N/A% 29.93 in 10.0 mi South 8.1 mph - N/A   Clear
3:40 PM 50.5 °F - 33.1 °F 51% 29.93 in 10.0 mi SSE 6.9 mph - N/A   Clear
3:58 PM 50.9 °F - 32.7 °F 50% 29.92 in 10.0 mi SSE 4.6 mph - N/A   Clear
4:59 PM 50.0 °F - 33.8 °F 54% 29.89 in 10.0 mi SE 8.1 mph - N/A   Clear
5:19 PM - - - N/A% 29.89 in 10.0 mi SE 6.9 mph - N/A   Clear
5:35 PM 49.5 °F - 33.8 °F 55% 29.89 in 10.0 mi SE 4.6 mph - N/A   Clear
5:36 PM 49.5 °F - 33.8 °F 55% 29.89 in 10.0 mi SE 5.8 mph - N/A   Clear
5:55 PM 48.7 °F - 34.9 °F 59% 29.88 in 10.0 mi East 5.8 mph - N/A   Clear
5:56 PM 48.6 °F - 35.1 °F 60% 29.88 in 10.0 mi East 5.8 mph - N/A   Clear
6:19 PM 46.9 °F - 35.1 °F 63% 29.88 in 10.0 mi East 4.6 mph - N/A   Clear
6:36 PM 46.6 °F - 35.1 °F 64% 29.88 in 10.0 mi East 3.5 mph - N/A   Clear
6:55 PM 45.5 °F 44.2 °F 35.1 °F 67% 29.88 in 10.0 mi ENE 3.5 mph - N/A   Clear
6:56 PM 45.5 °F 43.2 °F 35.1 °F 67% 29.88 in 10.0 mi ENE 4.6 mph - N/A   Clear
7:15 PM 44.2 °F 41.8 °F 35.6 °F 72% 29.88 in 10.0 mi ENE 4.6 mph - N/A   Clear
7:16 PM 44.2 °F 41.8 °F 35.6 °F 72% 29.88 in 10.0 mi East 4.6 mph - N/A   Clear
7:38 PM 43.7 °F 42.1 °F 35.2 °F 72% 29.89 in 10.0 mi ENE 3.5 mph - N/A   Clear
7:56 PM 43.2 °F - 35.1 °F 73% 29.90 in 10.0 mi Calm Calm - N/A   Clear
8:15 PM 43.2 °F - 35.6 °F 75% 29.90 in 10.0 mi Calm Calm - N/A   Clear
8:16 PM 43.0 °F - 35.6 °F 75% 29.90 in 10.0 mi Calm Calm - N/A   Clear
8:39 PM 41.7 °F - 36.7 °F 82% 29.90 in 10.0 mi Calm Calm - N/A   Mostly Cloudy
8:55 PM 42.8 °F 41.1 °F 36.9 °F 80% 29.90 in 10.0 mi ENE 3.5 mph - N/A   Mostly Cloudy
9:35 PM 42.8 °F 41.1 °F 36.5 °F 78% 29.90 in 10.0 mi ENE 3.5 mph - N/A   Mostly Cloudy
9:39 PM 42.8 °F 40.1 °F 36.3 °F 78% 29.90 in 10.0 mi ENE 4.6 mph - N/A   Mostly Cloudy
9:56 PM 42.4 °F 38.8 °F 36.5 °F 79% 29.89 in 10.0 mi East 5.8 mph - N/A   Scattered Clouds
10:15 PM 42.6 °F 39.9 °F 36.5 °F 79% 29.89 in 10.0 mi East 4.6 mph - N/A   Clear
10:16 PM 42.6 °F 39.9 °F 36.5 °F 79% 29.89 in 10.0 mi East 4.6 mph - N/A   Clear
10:35 PM 43.0 °F 39.5 °F 36.5 °F 78% 29.88 in 10.0 mi East 5.8 mph - N/A   Clear
10:39 PM 43.0 °F 38.8 °F 36.5 °F 78% 29.88 in 10.0 mi East 6.9 mph - N/A   Scattered Clouds
10:56 PM 43.3 °F 39.2 °F 36.5 °F 77% 29.87 in 10.0 mi East 6.9 mph - N/A   Mostly Cloudy
11:15 PM 44.2 °F 40.3 °F 36.5 °F 74% 29.86 in 10.0 mi East 6.9 mph - N/A   Mostly Cloudy
11:38 PM 44.2 °F 40.3 °F 37.0 °F 76% 29.85 in 10.0 mi East 6.9 mph - N/A   Mostly Cloudy
11:56 PM 44.1 °F 40.8 °F 36.9 °F 76% 29.85 in 10.0 mi East 5.8 mph - N/A   Mostly Cloudy